Terminal Aerodrome Forecast
Issued by NWS Duluth, MN

Home | Current Version | Previous Version | Text Only | Print | Product List | Glossary On
Versions: 1 2 3 4 5 6 7 8 9 10 11 12 13 14 15 16 17 18 19 20 21
000
FTUS43 KDLH 282336
TAFDLH
TAF
KDLH 282336Z 2900/2924 20012KT P6SM VCSH FEW035 BKN050
      TEMPO 2900/2902 -TSRA SCT025 BKN035CB
     FM290200 24012KT P6SM FEW050
     FM290600 25012KT P6SM SKC WS010/25040KT
     FM291400 26020G35KT P6SM SCT100=

USA.gov is the U.S. government's official web portal to all federal, state and local government web resources and services.